createdAt,value
2018-04-16T00:00:04.228Z,1.609344
2018-04-16T00:00:16.475Z,1.609344
2018-04-16T00:00:28.784Z,1.609344
2018-04-16T00:00:40.974Z,1.609344
2018-04-16T00:00:53.200Z,1.609344
2018-04-16T00:01:05.378Z,3.218688
2018-04-16T00:01:17.567Z,1.609344
2018-04-16T00:01:29.757Z,3.218688
2018-04-16T00:01:41.937Z,4.828032
2018-04-16T00:01:54.105Z,3.218688
2018-04-16T00:02:06.303Z,6.437376
2018-04-16T00:02:18.485Z,6.437376
2018-04-16T00:02:30.641Z,8.04672
2018-04-16T00:02:42.825Z,6.437376
2018-04-16T00:02:55.017Z,8.04672
2018-04-16T00:03:07.207Z,6.437376
2018-04-16T00:03:19.367Z,3.218688
2018-04-16T00:03:31.580Z,4.828032
2018-04-16T00:03:43.754Z,3.218688
2018-04-16T00:03:55.914Z,1.609344
2018-04-16T00:04:08.102Z,8.04672
2018-04-16T00:04:20.276Z,9.656064
2018-04-16T00:04:32.556Z,6.437376
2018-04-16T00:04:44.730Z,6.437376
2018-04-16T00:04:56.900Z,3.218688
2018-04-16T00:05:09.079Z,6.437376
2018-04-16T00:05:21.233Z,3.218688
2018-04-16T00:05:33.462Z,9.656064
2018-04-16T00:05:45.640Z,8.04672
2018-04-16T00:05:58.115Z,3.218688
2018-04-16T00:06:10.302Z,3.218688
2018-04-16T00:06:22.529Z,6.437376
2018-04-16T00:06:34.712Z,6.437376
2018-04-16T00:06:46.858Z,4.828032
2018-04-16T00:06:59.030Z,9.656064
2018-04-16T00:07:11.201Z,9.656064
2018-04-16T00:07:23.382Z,9.656064
2018-04-16T00:07:35.534Z,8.04672
2018-04-16T00:07:47.689Z,9.656064
2018-04-16T00:07:59.847Z,6.437376
2018-04-16T00:08:12.011Z,6.437376
2018-04-16T00:08:24.184Z,3.218688
2018-04-16T00:08:36.355Z,6.437376
2018-04-16T00:08:48.548Z,6.437376
2018-04-16T00:09:00.754Z,8.04672
2018-04-16T00:09:12.919Z,8.04672
2018-04-16T00:09:25.138Z,9.656064
2018-04-16T00:09:37.293Z,9.656064
2018-04-16T00:09:49.468Z,8.04672
2018-04-16T00:10:01.636Z,8.04672
2018-04-16T00:10:13.974Z,6.437376
2018-04-16T00:10:26.179Z,6.437376
2018-04-16T00:10:38.363Z,3.218688
2018-04-16T00:10:50.525Z,3.218688
2018-04-16T00:11:02.688Z,1.609344
2018-04-16T00:11:14.854Z,3.218688
2018-04-16T00:11:27.025Z,4.828032
2018-04-16T00:11:39.183Z,1.609344
2018-04-16T00:11:51.350Z,4.828032
2018-04-16T00:12:03.516Z,6.437376
2018-04-16T00:12:15.732Z,6.437376
2018-04-16T00:12:27.897Z,4.828032
2018-04-16T00:12:40.065Z,3.218688
2018-04-16T00:12:52.218Z,4.828032
2018-04-16T00:13:04.408Z,3.218688
2018-04-16T00:13:16.570Z,3.218688
2018-04-16T00:13:28.965Z,3.218688
2018-04-16T00:13:41.356Z,3.218688
2018-04-16T00:13:53.507Z,1.609344
2018-04-16T00:14:05.676Z,1.609344
2018-04-16T00:14:17.834Z,3.218688
2018-04-16T00:14:30.009Z,3.218688
2018-04-16T00:14:42.177Z,4.828032
2018-04-16T00:14:54.347Z,1.609344
2018-04-16T00:15:06.533Z,1.609344
2018-04-16T00:15:18.710Z,1.609344
2018-04-16T00:15:30.873Z,1.609344
2018-04-16T00:15:43.055Z,1.609344
2018-04-16T00:15:55.231Z,3.218688
2018-04-16T00:16:07.403Z,3.218688
2018-04-16T00:16:19.562Z,3.218688
2018-04-16T00:16:31.742Z,3.218688
2018-04-16T00:16:43.908Z,1.609344
2018-04-16T00:16:56.060Z,3.218688
2018-04-16T00:17:08.238Z,3.218688
2018-04-16T00:17:20.443Z,3.218688
2018-04-16T00:17:32.625Z,3.218688
2018-04-16T00:17:44.790Z,3.218688
2018-04-16T00:17:56.990Z,6.437376
2018-04-16T00:18:09.298Z,6.437376
2018-04-16T00:18:21.468Z,6.437376
2018-04-16T00:18:33.884Z,6.437376
2018-04-16T00:18:46.075Z,1.609344
2018-04-16T00:18:58.246Z,1.609344
2018-04-16T00:19:10.433Z,1.609344
2018-04-16T00:19:22.608Z,3.218688
2018-04-16T00:19:34.773Z,3.218688
2018-04-16T00:19:46.956Z,3.218688
2018-04-16T00:19:59.116Z,3.218688
2018-04-16T00:20:11.267Z,3.218688
2018-04-16T00:20:23.450Z,3.218688
2018-04-16T00:20:35.608Z,3.218688
2018-04-16T00:20:47.777Z,3.218688
2018-04-16T00:20:59.935Z,3.218688
2018-04-16T00:21:12.096Z,3.218688
2018-04-16T00:21:24.262Z,1.609344
2018-04-16T00:21:36.444Z,3.218688
2018-04-16T00:21:48.795Z,3.218688
2018-04-16T00:22:00.983Z,3.218688
2018-04-16T00:22:13.145Z,3.218688
2018-04-16T00:22:25.320Z,3.218688
2018-04-16T00:22:37.531Z,3.218688
2018-04-16T00:22:49.692Z,1.609344
2018-04-16T00:23:01.859Z,3.218688
2018-04-16T00:23:14.049Z,3.218688
2018-04-16T00:23:26.222Z,3.218688
2018-04-16T00:23:38.392Z,3.218688
2018-04-16T00:23:50.554Z,8.04672
2018-04-16T00:24:02.800Z,6.437376
2018-04-16T00:24:14.970Z,6.437376
2018-04-16T00:24:27.161Z,3.218688
2018-04-16T00:24:39.322Z,3.218688
2018-04-16T00:24:51.509Z,1.609344
2018-04-16T00:25:03.672Z,1.609344
2018-04-16T00:25:15.829Z,3.218688
2018-04-16T00:25:28.078Z,3.218688
2018-04-16T00:25:40.256Z,1.609344
2018-04-16T00:25:52.438Z,1.609344
2018-04-16T00:26:04.602Z,1.609344
2018-04-16T00:26:16.758Z,1.609344
2018-04-16T00:26:28.922Z,1.609344
2018-04-16T00:26:41.086Z,1.609344
2018-04-16T00:26:53.272Z,1.609344
2018-04-16T00:27:05.440Z,3.218688
2018-04-16T00:27:17.601Z,3.218688
2018-04-16T00:27:29.768Z,1.609344
2018-04-16T00:27:41.946Z,3.218688
2018-04-16T00:27:54.114Z,8.04672
2018-04-16T00:28:06.293Z,6.437376
2018-04-16T00:28:18.455Z,6.437376
2018-04-16T00:28:30.616Z,6.437376
2018-04-16T00:28:42.771Z,6.437376
2018-04-16T00:28:55.008Z,4.828032
2018-04-16T00:29:07.185Z,3.218688
2018-04-16T00:29:19.386Z,3.218688
2018-04-16T00:29:31.657Z,3.218688
2018-04-16T00:29:43.824Z,3.218688
2018-04-16T00:29:55.974Z,3.218688
2018-04-16T00:30:08.145Z,4.828032
2018-04-16T00:30:20.301Z,1.609344
2018-04-16T00:30:32.462Z,1.609344
2018-04-16T00:30:44.629Z,1.609344
2018-04-16T00:30:56.791Z,3.218688
2018-04-16T00:31:08.958Z,1.609344
2018-04-16T00:31:21.134Z,6.437376
2018-04-16T00:31:33.286Z,3.218688
2018-04-16T00:31:45.456Z,3.218688
2018-04-16T00:31:57.645Z,4.828032
2018-04-16T00:32:09.802Z,3.218688
2018-04-16T00:32:21.975Z,4.828032
2018-04-16T00:32:34.134Z,3.218688
2018-04-16T00:32:46.280Z,1.609344
2018-04-16T00:32:58.458Z,3.218688
2018-04-16T00:33:10.650Z,1.609344
2018-04-16T00:33:22.823Z,1.609344
2018-04-16T00:33:35.007Z,4.828032
2018-04-16T00:33:47.175Z,3.218688
2018-04-16T00:33:59.336Z,1.609344
2018-04-16T00:34:11.511Z,4.828032
2018-04-16T00:34:23.834Z,8.04672
2018-04-16T00:34:36.011Z,3.218688
2018-04-16T00:34:48.192Z,3.218688
2018-04-16T00:35:00.395Z,3.218688
2018-04-16T00:35:12.591Z,8.04672
2018-04-16T00:35:24.752Z,6.437376
2018-04-16T00:35:36.926Z,3.218688
2018-04-16T00:35:49.162Z,1.609344
2018-04-16T00:36:01.336Z,3.218688
2018-04-16T00:36:13.491Z,3.218688
2018-04-16T00:36:25.657Z,8.04672
2018-04-16T00:36:37.825Z,6.437376
2018-04-16T00:36:49.973Z,6.437376
2018-04-16T00:37:02.127Z,8.04672
2018-04-16T00:37:14.302Z,3.218688
2018-04-16T00:37:26.490Z,3.218688
2018-04-16T00:37:38.660Z,6.437376
2018-04-16T00:37:50.821Z,3.218688
2018-04-16T00:38:02.993Z,8.04672
2018-04-16T00:38:15.187Z,6.437376
2018-04-16T00:38:27.355Z,1.609344
2018-04-16T00:38:39.542Z,1.609344
2018-04-16T00:38:51.713Z,3.218688
2018-04-16T00:39:03.870Z,6.437376
2018-04-16T00:39:16.025Z,3.218688
2018-04-16T00:39:28.244Z,4.828032
2018-04-16T00:39:40.439Z,4.828032
2018-04-16T00:39:52.606Z,4.828032
2018-04-16T00:40:04.798Z,3.218688
2018-04-16T00:40:16.946Z,3.218688
2018-04-16T00:40:29.104Z,3.218688
2018-04-16T00:40:41.282Z,9.656064
2018-04-16T00:40:53.457Z,9.656064
2018-04-16T00:41:05.622Z,9.656064
2018-04-16T00:41:17.821Z,8.04672
2018-04-16T00:41:29.984Z,8.04672
2018-04-16T00:41:42.446Z,6.437376
2018-04-16T00:41:54.606Z,9.656064
2018-04-16T00:42:06.753Z,8.04672
2018-04-16T00:42:18.916Z,8.04672
2018-04-16T00:42:31.102Z,6.437376
2018-04-16T00:42:43.267Z,8.04672
2018-04-16T00:42:55.443Z,9.656064
2018-04-16T00:43:07.607Z,9.656064
2018-04-16T00:43:19.771Z,9.656064
2018-04-16T00:43:31.942Z,6.437376
2018-04-16T00:43:44.094Z,3.218688
2018-04-16T00:43:56.244Z,6.437376
2018-04-16T00:44:08.425Z,3.218688
2018-04-16T00:44:20.584Z,3.218688
2018-04-16T00:44:32.737Z,6.437376
2018-04-16T00:44:44.904Z,6.437376
2018-04-16T00:44:57.061Z,6.437376
2018-04-16T00:45:09.234Z,4.828032
2018-04-16T00:45:21.401Z,6.437376
2018-04-16T00:45:33.563Z,3.218688
2018-04-16T00:45:45.795Z,3.218688
2018-04-16T00:45:57.961Z,6.437376
2018-04-16T00:46:10.139Z,6.437376
2018-04-16T00:46:22.314Z,4.828032
2018-04-16T00:46:34.533Z,4.828032
2018-04-16T00:46:46.708Z,6.437376
2018-04-16T00:46:58.866Z,8.04672
2018-04-16T00:47:11.015Z,6.437376
2018-04-16T00:47:23.187Z,9.656064
2018-04-16T00:47:35.647Z,6.437376
2018-04-16T00:47:47.862Z,4.828032
2018-04-16T00:48:00.017Z,3.218688
2018-04-16T00:48:12.310Z,4.828032
2018-04-16T00:48:24.458Z,4.828032
2018-04-16T00:48:36.610Z,1.609344
2018-04-16T00:48:48.821Z,1.609344
2018-04-16T00:49:00.979Z,3.218688
2018-04-16T00:49:13.165Z,1.609344
2018-04-16T00:49:25.322Z,1.609344
2018-04-16T00:49:37.507Z,3.218688
2018-04-16T00:49:49.896Z,8.04672
2018-04-16T00:50:02.052Z,11.265408
2018-04-16T00:50:14.226Z,9.656064
2018-04-16T00:50:26.389Z,6.437376
2018-04-16T00:50:38.540Z,6.437376
2018-04-16T00:50:50.711Z,6.437376
2018-04-16T00:51:02.872Z,4.828032
2018-04-16T00:51:15.087Z,3.218688
2018-04-16T00:51:27.253Z,3.218688
2018-04-16T00:51:39.421Z,6.437376
2018-04-16T00:51:51.570Z,8.04672
2018-04-16T00:52:03.733Z,6.437376
2018-04-16T00:52:15.924Z,3.218688
2018-04-16T00:52:28.089Z,3.218688
2018-04-16T00:52:40.245Z,8.04672
2018-04-16T00:52:52.408Z,6.437376
2018-04-16T00:53:04.685Z,3.218688
2018-04-16T00:53:17.282Z,8.04672
2018-04-16T00:53:29.456Z,6.437376
2018-04-16T00:53:41.626Z,6.437376
2018-04-16T00:53:53.789Z,3.218688
2018-04-16T00:54:05.966Z,8.04672
2018-04-16T00:54:18.128Z,9.656064
2018-04-16T00:54:30.302Z,9.656064
2018-04-16T00:54:42.565Z,9.656064
2018-04-16T00:54:54.733Z,11.265408
2018-04-16T00:55:06.904Z,8.04672
2018-04-16T00:55:19.143Z,6.437376
2018-04-16T00:55:31.305Z,8.04672
2018-04-16T00:55:43.469Z,8.04672
2018-04-16T00:55:55.645Z,6.437376
2018-04-16T00:56:07.797Z,6.437376
2018-04-16T00:56:19.950Z,6.437376
2018-04-16T00:56:32.178Z,6.437376
2018-04-16T00:56:44.342Z,4.828032
2018-04-16T00:56:56.495Z,8.04672
2018-04-16T00:57:08.663Z,4.828032
2018-04-16T00:57:20.833Z,11.265408
2018-04-16T00:57:32.997Z,11.265408
2018-04-16T00:57:45.163Z,8.04672
2018-04-16T00:57:57.315Z,8.04672
2018-04-16T00:58:09.468Z,8.04672
2018-04-16T00:58:21.619Z,4.828032
2018-04-16T00:58:33.829Z,6.437376
2018-04-16T00:58:45.983Z,6.437376
2018-04-16T00:58:58.160Z,6.437376
2018-04-16T00:59:10.399Z,8.04672
2018-04-16T00:59:22.577Z,6.437376
2018-04-16T00:59:34.795Z,6.437376
2018-04-16T00:59:46.954Z,8.04672
2018-04-16T00:59:59.115Z,8.04672
2018-04-16T01:00:11.306Z,8.04672
2018-04-16T01:00:23.505Z,8.04672
2018-04-16T01:00:35.737Z,9.656064
2018-04-16T01:00:47.942Z,8.04672
2018-04-16T01:01:00.155Z,8.04672
2018-04-16T01:01:12.328Z,8.04672
2018-04-16T01:01:24.520Z,8.04672
2018-04-16T01:01:36.695Z,11.265408
2018-04-16T01:01:48.870Z,6.437376
2018-04-16T01:02:01.039Z,11.265408
2018-04-16T01:02:13.217Z,11.265408
2018-04-16T01:02:25.378Z,11.265408
2018-04-16T01:02:37.559Z,8.04672
2018-04-16T01:02:49.725Z,6.437376
2018-04-16T01:03:01.895Z,11.265408
2018-04-16T01:03:14.064Z,8.04672
2018-04-16T01:03:26.230Z,4.828032
2018-04-16T01:03:38.398Z,9.656064
2018-04-16T01:03:50.587Z,8.04672
2018-04-16T01:04:02.765Z,6.437376
2018-04-16T01:04:14.963Z,9.656064
2018-04-16T01:04:27.141Z,6.437376
2018-04-16T01:04:39.320Z,9.656064
2018-04-16T01:04:51.500Z,11.265408
2018-04-16T01:05:03.745Z,8.04672
2018-04-16T01:05:15.927Z,6.437376
2018-04-16T01:05:28.171Z,9.656064
2018-04-16T01:05:40.369Z,8.04672
2018-04-16T01:05:52.532Z,9.656064
2018-04-16T01:06:04.683Z,11.265408
2018-04-16T01:06:16.864Z,8.04672
2018-04-16T01:06:29.026Z,8.04672
2018-04-16T01:06:41.206Z,8.04672
2018-04-16T01:06:53.359Z,9.656064
2018-04-16T01:07:05.529Z,9.656064
2018-04-16T01:07:17.761Z,9.656064
2018-04-16T01:07:29.966Z,8.04672
2018-04-16T01:07:42.139Z,8.04672
2018-04-16T01:07:54.302Z,9.656064
2018-04-16T01:08:06.490Z,8.04672
2018-04-16T01:08:18.681Z,6.437376
2018-04-16T01:08:30.847Z,3.218688
2018-04-16T01:08:43.050Z,6.437376
2018-04-16T01:08:55.202Z,8.04672
2018-04-16T01:09:07.367Z,6.437376
2018-04-16T01:09:19.544Z,6.437376
2018-04-16T01:09:31.720Z,9.656064
2018-04-16T01:09:43.931Z,6.437376
2018-04-16T01:09:56.103Z,8.04672
2018-04-16T01:10:08.286Z,8.04672
2018-04-16T01:10:20.448Z,6.437376
2018-04-16T01:10:32.703Z,9.656064
2018-04-16T01:10:44.868Z,6.437376
2018-04-16T01:10:57.016Z,6.437376
2018-04-16T01:11:09.219Z,6.437376
2018-04-16T01:11:21.412Z,6.437376
2018-04-16T01:11:33.559Z,4.828032
2018-04-16T01:11:45.752Z,6.437376
2018-04-16T01:11:57.913Z,3.218688
2018-04-16T01:12:10.079Z,3.218688
2018-04-16T01:12:22.230Z,3.218688
2018-04-16T01:12:34.397Z,4.828032
2018-04-16T01:12:46.560Z,1.609344
2018-04-16T01:12:58.712Z,1.609344
2018-04-16T01:13:10.898Z,9.656064
2018-04-16T01:13:23.308Z,9.656064
2018-04-16T01:13:35.714Z,4.828032
2018-04-16T01:13:47.883Z,6.437376
2018-04-16T01:14:00.039Z,6.437376
2018-04-16T01:14:12.245Z,3.218688
2018-04-16T01:14:24.401Z,3.218688
2018-04-16T01:14:36.557Z,3.218688
2018-04-16T01:14:48.769Z,3.218688
2018-04-16T01:15:00.976Z,6.437376
2018-04-16T01:15:13.139Z,8.04672
2018-04-16T01:15:25.316Z,6.437376
2018-04-16T01:15:37.515Z,4.828032
2018-04-16T01:15:49.676Z,6.437376
2018-04-16T01:16:01.876Z,3.218688
2018-04-16T01:16:14.099Z,3.218688
2018-04-16T01:16:26.255Z,3.218688
2018-04-16T01:16:38.423Z,4.828032
2018-04-16T01:16:50.581Z,8.04672
2018-04-16T01:17:02.747Z,6.437376
2018-04-16T01:17:14.958Z,8.04672
2018-04-16T01:17:27.134Z,9.656064
2018-04-16T01:17:39.307Z,9.656064
2018-04-16T01:17:51.456Z,11.265408
2018-04-16T01:18:03.624Z,9.656064
2018-04-16T01:18:15.994Z,8.04672
2018-04-16T01:18:28.384Z,6.437376
2018-04-16T01:18:40.546Z,9.656064
2018-04-16T01:18:52.717Z,8.04672
2018-04-16T01:19:04.878Z,9.656064
2018-04-16T01:19:17.048Z,6.437376
2018-04-16T01:19:29.257Z,3.218688
2018-04-16T01:19:41.430Z,3.218688
2018-04-16T01:19:53.641Z,8.04672
2018-04-16T01:20:05.813Z,8.04672
2018-04-16T01:20:17.990Z,8.04672
2018-04-16T01:20:30.149Z,8.04672
2018-04-16T01:20:42.311Z,4.828032
2018-04-16T01:20:54.465Z,8.04672
2018-04-16T01:21:06.605Z,6.437376
2018-04-16T01:21:18.758Z,6.437376
2018-04-16T01:21:30.977Z,1.609344
2018-04-16T01:21:43.268Z,4.828032
2018-04-16T01:21:55.421Z,6.437376
2018-04-16T01:22:07.615Z,6.437376
2018-04-16T01:22:19.778Z,3.218688
2018-04-16T01:22:31.978Z,3.218688
2018-04-16T01:22:44.162Z,3.218688
2018-04-16T01:22:56.322Z,4.828032
2018-04-16T01:23:08.485Z,6.437376
2018-04-16T01:23:20.649Z,3.218688
2018-04-16T01:23:32.862Z,3.218688
2018-04-16T01:23:45.011Z,6.437376
2018-04-16T01:23:57.169Z,4.828032
2018-04-16T01:24:09.350Z,4.828032
2018-04-16T01:24:21.517Z,6.437376
2018-04-16T01:24:33.700Z,9.656064
2018-04-16T01:24:45.873Z,6.437376
2018-04-16T01:24:58.035Z,8.04672
2018-04-16T01:25:10.218Z,8.04672
2018-04-16T01:25:22.413Z,8.04672
2018-04-16T01:25:34.628Z,3.218688
2018-04-16T01:25:46.829Z,3.218688
2018-04-16T01:25:58.997Z,3.218688
2018-04-16T01:26:11.181Z,6.437376
2018-04-16T01:26:23.351Z,3.218688
2018-04-16T01:26:35.567Z,3.218688
2018-04-16T01:26:47.721Z,6.437376
2018-04-16T01:26:59.886Z,8.04672
2018-04-16T01:27:12.045Z,8.04672
2018-04-16T01:27:24.434Z,3.218688
2018-04-16T01:27:36.588Z,3.218688
2018-04-16T01:27:48.781Z,3.218688
2018-04-16T01:28:00.965Z,1.609344
2018-04-16T01:28:13.153Z,3.218688
2018-04-16T01:28:25.320Z,1.609344
2018-04-16T01:28:37.538Z,3.218688
2018-04-16T01:28:49.753Z,3.218688
2018-04-16T01:29:01.946Z,1.609344
2018-04-16T01:29:14.122Z,1.609344
2018-04-16T01:29:26.290Z,1.609344
2018-04-16T01:29:38.453Z,1.609344
2018-04-16T01:29:50.613Z,1.609344
2018-04-16T01:30:02.777Z,1.609344
2018-04-16T01:30:14.945Z,3.218688
2018-04-16T01:30:27.109Z,1.609344
2018-04-16T01:30:39.278Z,1.609344
2018-04-16T01:30:51.434Z,3.218688
2018-04-16T01:31:03.579Z,3.218688
2018-04-16T01:31:15.744Z,6.437376
2018-04-16T01:31:27.934Z,3.218688
2018-04-16T01:31:40.140Z,1.609344
2018-04-16T01:31:52.308Z,3.218688
2018-04-16T01:32:04.462Z,3.218688
2018-04-16T01:32:16.688Z,6.437376
2018-04-16T01:32:28.838Z,6.437376
2018-04-16T01:32:41.024Z,3.218688
2018-04-16T01:32:53.208Z,1.609344
2018-04-16T01:33:05.367Z,3.218688
2018-04-16T01:33:17.522Z,4.828032
2018-04-16T01:33:29.687Z,3.218688
2018-04-16T01:33:41.847Z,6.437376
2018-04-16T01:33:54.010Z,3.218688
2018-04-16T01:34:06.179Z,6.437376
2018-04-16T01:34:18.507Z,3.218688
2018-04-16T01:34:30.671Z,4.828032
2018-04-16T01:34:42.844Z,4.828032
2018-04-16T01:34:54.999Z,6.437376
2018-04-16T01:35:07.162Z,8.04672
2018-04-16T01:35:19.331Z,6.437376
2018-04-16T01:35:31.491Z,6.437376
2018-04-16T01:35:43.648Z,3.218688
2018-04-16T01:35:55.785Z,4.828032
2018-04-16T01:36:07.948Z,8.04672
2018-04-16T01:36:20.124Z,3.218688
2018-04-16T01:36:32.279Z,3.218688
2018-04-16T01:36:44.466Z,3.218688
2018-04-16T01:36:56.645Z,8.04672
2018-04-16T01:37:08.825Z,3.218688
2018-04-16T01:37:21.070Z,6.437376
2018-04-16T01:37:33.248Z,4.828032
2018-04-16T01:37:45.436Z,6.437376
2018-04-16T01:37:57.669Z,4.828032
2018-04-16T01:38:09.834Z,3.218688
2018-04-16T01:38:21.992Z,4.828032
2018-04-16T01:38:34.153Z,8.04672
2018-04-16T01:38:46.321Z,6.437376
2018-04-16T01:38:58.487Z,4.828032
2018-04-16T01:39:10.819Z,6.437376
2018-04-16T01:39:23.079Z,1.609344
2018-04-16T01:39:35.401Z,3.218688
2018-04-16T01:39:47.584Z,4.828032
2018-04-16T01:39:59.791Z,3.218688
2018-04-16T01:40:11.966Z,1.609344
2018-04-16T01:40:24.155Z,4.828032
2018-04-16T01:40:36.318Z,6.437376
2018-04-16T01:40:48.482Z,6.437376
2018-04-16T01:41:00.650Z,6.437376
2018-04-16T01:41:12.966Z,6.437376
2018-04-16T01:41:25.124Z,6.437376
2018-04-16T01:41:37.280Z,6.437376
2018-04-16T01:41:49.473Z,1.609344
2018-04-16T01:42:01.642Z,1.609344
2018-04-16T01:42:13.832Z,3.218688
2018-04-16T01:42:26.017Z,1.609344
2018-04-16T01:42:38.178Z,6.437376
2018-04-16T01:42:50.331Z,1.609344
2018-04-16T01:43:02.483Z,3.218688
2018-04-16T01:43:14.683Z,6.437376
2018-04-16T01:43:26.842Z,4.828032
2018-04-16T01:43:39.018Z,1.609344
2018-04-16T01:43:51.205Z,1.609344
2018-04-16T01:44:03.413Z,1.609344
2018-04-16T01:44:15.558Z,3.218688
2018-04-16T01:44:27.701Z,3.218688
2018-04-16T01:44:39.880Z,6.437376
2018-04-16T01:44:52.049Z,6.437376
2018-04-16T01:45:04.230Z,4.828032
2018-04-16T01:45:16.383Z,1.609344
2018-04-16T01:45:28.527Z,3.218688
2018-04-16T01:45:40.691Z,4.828032
2018-04-16T01:45:52.853Z,3.218688
2018-04-16T01:46:05.022Z,1.609344
2018-04-16T01:46:17.239Z,1.609344
2018-04-16T01:46:29.408Z,1.609344
2018-04-16T01:46:41.591Z,1.609344
2018-04-16T01:46:53.786Z,1.609344
2018-04-16T01:47:05.953Z,0
2018-04-16T01:47:18.112Z,0
2018-04-16T01:47:30.282Z,0
2018-04-16T01:47:42.429Z,0
2018-04-16T01:47:54.587Z,0
2018-04-16T01:48:06.872Z,0
2018-04-16T01:48:19.025Z,0
2018-04-16T01:48:31.211Z,0
2018-04-16T01:48:43.387Z,1.609344
2018-04-16T01:48:55.548Z,1.609344
2018-04-16T01:49:07.745Z,3.218688
2018-04-16T01:49:19.924Z,3.218688
2018-04-16T01:49:32.158Z,3.218688
2018-04-16T01:49:44.420Z,3.218688
2018-04-16T01:49:56.577Z,6.437376
2018-04-16T01:50:08.771Z,4.828032
2018-04-16T01:50:20.995Z,3.218688
2018-04-16T01:50:33.165Z,3.218688
2018-04-16T01:50:45.326Z,6.437376
2018-04-16T01:50:57.505Z,6.437376
2018-04-16T01:51:09.758Z,6.437376
2018-04-16T01:51:21.955Z,3.218688
2018-04-16T01:51:34.114Z,4.828032
2018-04-16T01:51:46.300Z,0
2018-04-16T01:51:58.447Z,1.609344
2018-04-16T01:52:10.626Z,3.218688
2018-04-16T01:52:22.769Z,3.218688
2018-04-16T01:52:34.968Z,3.218688
2018-04-16T01:52:47.126Z,3.218688
2018-04-16T01:52:59.304Z,6.437376
2018-04-16T01:53:11.459Z,8.04672
2018-04-16T01:53:23.650Z,6.437376
2018-04-16T01:53:35.823Z,6.437376
2018-04-16T01:53:47.984Z,8.04672
2018-04-16T01:54:00.152Z,4.828032
2018-04-16T01:54:12.312Z,3.218688
2018-04-16T01:54:24.469Z,6.437376
2018-04-16T01:54:36.654Z,3.218688
2018-04-16T01:54:48.812Z,4.828032
2018-04-16T01:55:00.979Z,8.04672
2018-04-16T01:55:13.159Z,8.04672
2018-04-16T01:55:25.334Z,9.656064
2018-04-16T01:55:37.509Z,9.656064
2018-04-16T01:55:49.711Z,9.656064
2018-04-16T01:56:01.860Z,9.656064
2018-04-16T01:56:14.243Z,4.828032
2018-04-16T01:56:26.401Z,6.437376
2018-04-16T01:56:38.584Z,6.437376
2018-04-16T01:56:50.725Z,3.218688
2018-04-16T01:57:02.893Z,3.218688
2018-04-16T01:57:15.082Z,6.437376
2018-04-16T01:57:27.243Z,8.04672
2018-04-16T01:57:39.437Z,6.437376
2018-04-16T01:57:51.605Z,3.218688
2018-04-16T01:58:03.806Z,1.609344
2018-04-16T01:58:15.964Z,3.218688
2018-04-16T01:58:28.118Z,6.437376
2018-04-16T01:58:40.292Z,3.218688
2018-04-16T01:58:52.449Z,3.218688
2018-04-16T01:59:04.632Z,3.218688
2018-04-16T01:59:16.784Z,3.218688
2018-04-16T01:59:28.942Z,6.437376
2018-04-16T01:59:41.103Z,6.437376
2018-04-16T01:59:53.248Z,3.218688
2018-04-16T02:00:05.409Z,3.218688
2018-04-16T02:00:17.617Z,3.218688
2018-04-16T02:00:29.812Z,6.437376
2018-04-16T02:00:42.017Z,6.437376
2018-04-16T02:00:54.234Z,3.218688
2018-04-16T02:01:06.484Z,4.828032
2018-04-16T02:01:18.756Z,3.218688
2018-04-16T02:01:30.920Z,1.609344
2018-04-16T02:01:43.102Z,1.609344
2018-04-16T02:01:55.263Z,3.218688
2018-04-16T02:02:07.429Z,1.609344
2018-04-16T02:02:19.624Z,1.609344
2018-04-16T02:02:31.808Z,3.218688
2018-04-16T02:02:44.036Z,1.609344
2018-04-16T02:02:56.189Z,1.609344
2018-04-16T02:03:08.383Z,1.609344
2018-04-16T02:03:20.619Z,6.437376
2018-04-16T02:03:32.803Z,4.828032
2018-04-16T02:03:45.002Z,1.609344
2018-04-16T02:03:57.184Z,1.609344
2018-04-16T02:04:09.366Z,3.218688
2018-04-16T02:04:21.561Z,6.437376
2018-04-16T02:04:33.727Z,1.609344
2018-04-16T02:04:45.885Z,6.437376
2018-04-16T02:04:58.068Z,6.437376
2018-04-16T02:05:10.223Z,6.437376
2018-04-16T02:05:22.422Z,3.218688
2018-04-16T02:05:34.611Z,6.437376
2018-04-16T02:05:46.776Z,6.437376
2018-04-16T02:05:58.972Z,8.04672
2018-04-16T02:06:11.221Z,8.04672
2018-04-16T02:06:23.375Z,3.218688
2018-04-16T02:06:35.545Z,6.437376
2018-04-16T02:06:47.707Z,3.218688
2018-04-16T02:06:59.870Z,3.218688
2018-04-16T02:07:12.051Z,4.828032
2018-04-16T02:07:24.219Z,6.437376
2018-04-16T02:07:36.368Z,4.828032
2018-04-16T02:07:48.536Z,3.218688
2018-04-16T02:08:00.709Z,3.218688
2018-04-16T02:08:12.892Z,6.437376
2018-04-16T02:08:25.070Z,9.656064
2018-04-16T02:08:37.228Z,8.04672
2018-04-16T02:08:49.420Z,9.656064
2018-04-16T02:09:01.598Z,6.437376
2018-04-16T02:09:13.779Z,6.437376
2018-04-16T02:09:25.966Z,4.828032
2018-04-16T02:09:38.122Z,8.04672
2018-04-16T02:09:50.273Z,8.04672
2018-04-16T02:10:02.464Z,6.437376
2018-04-16T02:10:14.659Z,4.828032
2018-04-16T02:10:26.837Z,6.437376
2018-04-16T02:10:39.004Z,4.828032
2018-04-16T02:10:51.185Z,6.437376
2018-04-16T02:11:03.352Z,8.04672
2018-04-16T02:11:15.744Z,6.437376
2018-04-16T02:11:27.987Z,6.437376
2018-04-16T02:11:40.561Z,6.437376
2018-04-16T02:11:52.731Z,8.04672
2018-04-16T02:12:04.892Z,8.04672
2018-04-16T02:12:17.062Z,8.04672
2018-04-16T02:12:29.215Z,8.04672
2018-04-16T02:12:41.393Z,6.437376
2018-04-16T02:12:53.554Z,8.04672
2018-04-16T02:13:05.739Z,6.437376
2018-04-16T02:13:18.091Z,6.437376
2018-04-16T02:13:30.233Z,6.437376
2018-04-16T02:13:42.556Z,4.828032
2018-04-16T02:13:54.725Z,3.218688
2018-04-16T02:14:06.913Z,3.218688
2018-04-16T02:14:19.078Z,6.437376
2018-04-16T02:14:31.245Z,8.04672
2018-04-16T02:14:43.424Z,8.04672
2018-04-16T02:14:55.745Z,8.04672
2018-04-16T02:15:07.910Z,6.437376
2018-04-16T02:15:20.080Z,4.828032
2018-04-16T02:15:32.259Z,3.218688
2018-04-16T02:15:44.426Z,3.218688
2018-04-16T02:15:56.609Z,6.437376
2018-04-16T02:16:08.763Z,6.437376
2018-04-16T02:16:20.913Z,3.218688
2018-04-16T02:16:33.087Z,3.218688
2018-04-16T02:16:45.249Z,8.04672
2018-04-16T02:16:57.425Z,4.828032
2018-04-16T02:17:09.591Z,6.437376
2018-04-16T02:17:21.903Z,4.828032
2018-04-16T02:17:34.061Z,3.218688
2018-04-16T02:17:46.210Z,3.218688
2018-04-16T02:17:58.368Z,6.437376
2018-04-16T02:18:10.733Z,6.437376
2018-04-16T02:18:22.891Z,6.437376
2018-04-16T02:18:35.224Z,6.437376
2018-04-16T02:18:47.394Z,6.437376
2018-04-16T02:18:59.627Z,4.828032
2018-04-16T02:19:11.801Z,3.218688
2018-04-16T02:19:23.951Z,6.437376
2018-04-16T02:19:36.124Z,3.218688
2018-04-16T02:19:48.297Z,3.218688
2018-04-16T02:20:00.491Z,1.609344
2018-04-16T02:20:12.651Z,3.218688
2018-04-16T02:20:24.803Z,6.437376
2018-04-16T02:20:36.990Z,6.437376
2018-04-16T02:20:49.140Z,4.828032
2018-04-16T02:21:01.301Z,6.437376
2018-04-16T02:21:13.553Z,9.656064
2018-04-16T02:21:25.776Z,11.265408
2018-04-16T02:21:37.964Z,9.656064
2018-04-16T02:21:50.301Z,9.656064
2018-04-16T02:22:02.489Z,9.656064
2018-04-16T02:22:14.729Z,9.656064
2018-04-16T02:22:26.924Z,8.04672
2018-04-16T02:22:39.121Z,11.265408
2018-04-16T02:22:51.296Z,6.437376
2018-04-16T02:23:03.486Z,8.04672
2018-04-16T02:23:15.653Z,3.218688
2018-04-16T02:23:27.825Z,4.828032
2018-04-16T02:23:39.984Z,8.04672
2018-04-16T02:23:52.137Z,8.04672